Darrington, WA (98241)

7:15 AM PDT on October 01, 2014 (GMT -0700)
Glacier View Internet | Change Station
CLOSE
Current Station
Personal Weather Station
Location: Darrington, WA
Elevation: 549 ft
Nearby Weather Stations

Elev 549 ft 48.25 °N, 121.61 °W | Updated 38 seconds ago

Overcast
Overcast
51.1 °F
Feels Like 51.1 °F
N
0.0
Wind Variable Wind from WSW
Gusts 1.0 mph

Today
High -- | Low -- °F
--% Chance of Precip.
Yesterday
High -- | Low -- °F
Precip. -- in
7:05 AM 6:45 PM
Waxing Crescent, 48% visible
Pressure 30.22 in
Visibility 10.0 miles
Clouds Overcast 2900 ft
Dew Point 49 °F
Humidity 92%
Rainfall 0.76 in
Snow Depth 0 in , 1 in , 0 in
UV 0 out of 12
Pollen 1.30 out of 12
PM2.5 Good
Flu Activity Not available.
METAR KAWO 011355Z AUTO 00000KT 10SM OVC029 11/09 A3022 RMK AO1

More Conditions Fewer Conditions

Pressure 30.22 in
Visibility 10.0 miles
Clouds Overcast 2900 ft
Dew Point 49 °F
Humidity 92%
Rainfall 0.76 in
Snow Depth 0 in , 1 in , 0 in
UV 0 out of 12
Pollen 1.30 out of 12
PM2.5 Good
Flu Activity Not available.
METAR KAWO 011355Z AUTO 00000KT 10SM OVC029 11/09 A3022 RMK AO1

More Conditions Fewer Conditions

10-Day Weather Forecast

Almanac

Astronomy

Oct. 01, 2014 Rise Set
Actual Time 7:05 AM PDT 6:45 PM PDT
Civil Twilight 6:34 AM PDT 7:16 PM PDT
Nautical Twilight 5:58 AM PDT 7:52 PM PDT
Astronomical Twilight 5:21 AM PDT 8:29 PM PDT
Moon 2:30 PM PDT No Moon Set
Length of Visible Light 12h 41m
Length of Day
11h 39m
Tomorrow will be 3m 29s shorter.
Waxing Crescent, 48% of the Moon is Illuminated
Today
Waxing Crescent
Oct 1
First Quarter
Oct 8
Full
Oct 15
Last Quarter
Oct 23
New

Today's Extremes

State Highs State Lows

Community

WunderPhotos

Upload Photos

1,757,952 photos uploaded!

Nearby

Air Quality

  Air Quality AQ Index Pollutant
Yesterday Good
OZONE
Yesterday Good
PM2.5
Current Good
PM2.5
Wednesday Good
PM2.5
Thursday Good
PM2.5
Friday Good
PM2.5
Saturday Good
PM2.5

Snow Depth

Station Depth Elevation
Stampede Pass 0 in 3860 ft
Surprise Lakes 1 in 4250 ft
Alpine Meadows 0 in 3500 ft
Spruce Springs 1 in 5700 ft
Upper Wheeler 0 in 4400 ft

Earthquake Activity

City Distance Mag. Time & Date
No recent earthquake activity has been reported nearby.
Minimum magnitude displayed is 2.5.

Coastal Water Temperatures

Place Temperature
No Stations Reporting

Nearby Weather Stations